Time;durP1;ratioP1;P1;durP2;ratioP2;P2;SDS_P1;SDS_P2;PMS_P1;PMS_P2;Temp;Humidity;BMP_temperature;BMP_pressure;BME280_temperature;BME280_humidity;BME280_pressure;Samples;Min_cycle;Max_cycle;Signal;HPM_P1;HPM_P2
2021/01/24 00:08:00;;;;;;;;;;;0.00;99.90;;;;;;6012763;23;19924;-80
2021/01/24 00:10:27;;;;;;;;;;;2.20;99.90;;;;;;5018784;28;19945;-81
2021/01/24 00:12:53;;;;;;;;;;;-0.60;99.90;;;;;;5019007;28;19929;-81
2021/01/24 00:15:20;;;;;;;;;;;0.50;99.90;;;;;;5019394;28;19926;-80
2021/01/24 09:02:46;;;;;;;;;;;0.60;99.90;;;;;;5041492;23;20016;-77
2021/01/24 09:05:13;;;;;;;;;;;0.70;99.90;;;;;;5018524;28;19951;-77
2021/01/24 09:07:39;;;;;;;;;;;0.70;99.90;;;;;;5018617;28;20338;-77
2021/01/24 09:10:15;;;;;;;;;;;0.70;99.90;;;;;;5018539;28;19925;-77
2021/01/24 09:12:41;;;;;;;;;;;0.70;99.90;;;;;;5018518;28;19991;-77
2021/01/24 09:15:08;;;;;;;;;;;0.80;99.90;;;;;;5018346;28;19943;-77
2021/01/24 09:17:34;;;;;;;;;;;0.80;99.90;;;;;;5017979;28;19933;-77
2021/01/24 09:20:02;;;;;;;;;;;0.80;99.90;;;;;;5018186;28;19925;-77
2021/01/24 09:22:28;;;;;;;;;;;0.80;99.90;;;;;;5017906;28;20353;-77
2021/01/24 09:24:54;;;;;;;;;;;0.80;99.90;;;;;;5017852;28;19925;-77
2021/01/24 09:27:21;;;;;;;;;;;0.80;99.90;;;;;;5017861;28;19925;-77
2021/01/24 09:29:47;;;;;;;;;;;0.80;99.90;;;;;;5017884;28;19941;-77
2021/01/24 09:32:13;;;;;;;;;;;0.80;99.90;;;;;;5017863;28;19937;-77
2021/01/24 09:34:40;;;;;;;;;;;0.80;99.90;;;;;;5017792;28;19932;-77
2021/01/24 09:37:07;;;;;;;;;;;0.80;99.90;;;;;;5017740;28;19925;-77
2021/01/24 09:39:33;;;;;;;;;;;0.80;99.90;;;;;;5017952;28;20285;-77
2021/01/24 09:42:00;;;;;;;;;;;0.90;99.90;;;;;;5017786;28;20339;-77
2021/01/24 09:44:26;;;;;;;;;;;0.90;99.90;;;;;;5017605;28;19925;-77
2021/01/24 09:46:52;;;;;;;;;;;0.90;99.90;;;;;;5017695;28;19997;-77
2021/01/24 09:49:19;;;;;;;;;;;0.90;99.90;;;;;;5017428;28;19925;-77
2021/01/24 09:51:45;;;;;;;;;;;0.90;99.90;;;;;;5017482;28;19925;-77
2021/01/24 09:54:14;;;;;;;;;;;0.90;99.90;;;;;;5017368;28;19957;-77
2021/01/24 09:56:40;;;;;;;;;;;1.00;99.90;;;;;;5017374;28;19925;-77
2021/01/24 09:59:07;;;;;;;;;;;1.00;99.90;;;;;;5017286;28;19925;-77
2021/01/24 10:01:33;;;;;;;;;;;1.10;99.90;;;;;;5007680;28;19936;-77
2021/01/24 10:03:59;;;;;;;;;;;1.10;99.90;;;;;;4997887;28;19941;-77
2021/01/24 10:06:26;;;;;;;;;;;1.20;99.90;;;;;;4997459;28;19925;-77
2021/01/24 10:08:52;;;;;;;;;;;1.20;99.90;;;;;;4997531;28;19926;-77
2021/01/24 10:11:21;;;;;;;;;;;1.20;99.90;;;;;;4997489;28;19926;-77
2021/01/24 10:13:47;;;;;;;;;;;1.20;99.90;;;;;;4997195;28;20298;-77
2021/01/24 10:16:14;;;;;;;;;;;1.20;99.90;;;;;;4997392;28;19930;-77
2021/01/24 10:18:40;;;;;;;;;;;1.20;99.90;;;;;;4997388;28;19936;-77
2021/01/24 10:21:06;;;;;;;;;;;1.20;99.90;;;;;;4997564;28;20250;-77
2021/01/24 10:23:33;;;;;;;;;;;1.20;99.90;;;;;;4997554;28;20381;-77
2021/01/24 10:25:59;;;;;;;;;;;1.20;99.90;;;;;;4997304;28;19925;-77
2021/01/24 10:28:26;;;;;;;;;;;1.20;99.90;;;;;;4997411;28;20243;-77
2021/01/24 10:30:53;;;;;;;;;;;1.20;99.90;;;;;;4997321;28;20355;-77
2021/01/24 10:33:19;;;;;;;;;;;1.30;99.90;;;;;;4997220;28;20362;-77
2021/01/24 10:35:45;;;;;;;;;;;1.30;99.90;;;;;;4997411;28;19973;-77
2021/01/24 10:38:12;;;;;;;;;;;1.30;99.90;;;;;;4997265;28;20261;-77
2021/01/24 10:40:38;;;;;;;;;;;1.30;99.90;;;;;;4997155;28;20266;-76
2021/01/24 10:43:05;;;;;;;;;;;1.30;99.90;;;;;;4996757;28;20342;-76
2021/01/24 10:45:32;;;;;;;;;;;1.40;99.90;;;;;;4996811;28;19926;-76
2021/01/24 10:47:58;;;;;;;;;;;1.40;99.90;;;;;;4996758;28;20359;-76
2021/01/24 10:50:24;;;;;;;;;;;1.40;99.90;;;;;;4997027;28;19926;-76
2021/01/24 10:52:51;;;;;;;;;;;1.40;99.90;;;;;;4996912;28;19925;-76
2021/01/24 10:55:17;;;;;;;;;;;1.40;99.90;;;;;;4996854;28;19934;-76
2021/01/24 10:57:44;;;;;;;;;;;1.40;99.90;;;;;;4996755;28;19939;-76
2021/01/24 11:00:10;;;;;;;;;;;1.40;99.90;;;;;;4996519;28;19984;-76
2021/01/24 11:02:37;;;;;;;;;;;1.40;99.90;;;;;;4996270;28;19926;-76
2021/01/24 11:05:04;;;;;;;;;;;1.40;99.90;;;;;;4996506;28;19941;-76
2021/01/24 11:07:30;;;;;;;;;;;1.40;99.90;;;;;;4996428;28;20347;-76
2021/01/24 11:09:57;;;;;;;;;;;1.40;99.90;;;;;;4996341;28;19926;-76
2021/01/24 11:12:23;;;;;;;;;;;1.40;99.90;;;;;;4996281;28;19934;-76
2021/01/24 11:14:49;;;;;;;;;;;1.40;99.90;;;;;;4996539;28;19925;-76
2021/01/24 11:17:16;;;;;;;;;;;1.40;99.90;;;;;;4996216;28;20373;-76
2021/01/24 11:19:44;;;;;;;;;;;1.40;99.90;;;;;;4996497;28;19932;-76
2021/01/24 11:22:10;;;;;;;;;;;1.40;99.90;;;;;;4996416;28;20259;-76
2021/01/24 11:24:37;;;;;;;;;;;1.40;99.90;;;;;;4995284;28;20373;-76
2021/01/24 11:27:05;;;;;;;;;;;1.50;99.90;;;;;;4996022;28;20412;-76
2021/01/24 11:29:31;;;;;;;;;;;1.50;99.90;;;;;;4995851;28;20298;-76
2021/01/24 11:31:57;;;;;;;;;;;1.50;99.90;;;;;;4996081;28;20354;-76
2021/01/24 11:34:24;;;;;;;;;;;1.60;99.90;;;;;;4995925;28;19926;-76
2021/01/24 11:36:51;;;;;;;;;;;1.60;99.90;;;;;;4995950;28;19925;-76
2021/01/24 11:39:17;;;;;;;;;;;1.60;99.90;;;;;;4996185;28;19925;-76
2021/01/24 11:41:44;;;;;;;;;;;1.60;99.90;;;;;;4995771;28;19930;-76
2021/01/24 11:44:10;;;;;;;;;;;1.60;99.90;;;;;;4995850;28;19926;-76
2021/01/24 11:46:36;;;;;;;;;;;1.60;99.90;;;;;;4996114;28;19933;-76
2021/01/24 11:49:03;;;;;;;;;;;1.60;99.90;;;;;;4996038;28;20004;-76
2021/01/24 11:51:29;;;;;;;;;;;1.70;99.90;;;;;;4999192;28;19925;-76
2021/01/24 11:53:56;;;;;;;;;;;1.70;99.90;;;;;;4996448;28;20025;-76
2021/01/24 12:01:39;;;;;;;;;;;1.80;99.90;;;;;;5154464;23;19916;-79
2021/01/24 12:04:06;;;;;;;;;;;0.80;99.90;;;;;;5017462;28;19925;-75
2021/01/24 12:06:32;;;;;;;;;;;1.80;99.90;;;;;;5015108;28;19935;-75
2021/01/24 12:08:59;;;;;;;;;;;1.80;99.90;;;;;;5015219;28;19925;-75
2021/01/24 12:11:26;;;;;;;;;;;1.80;99.90;;;;;;5017038;28;19931;-75
2021/01/24 12:13:52;;;;;;;;;;;1.80;99.90;;;;;;5015209;28;19953;-75
2021/01/24 12:16:18;;;;;;;;;;;1.80;99.90;;;;;;5015732;28;19926;-77
2021/01/24 12:18:45;;;;;;;;;;;1.80;99.90;;;;;;5015111;28;19929;-76
2021/01/24 12:21:11;;;;;;;;;;;1.80;99.90;;;;;;5015088;28;19952;-76
2021/01/24 12:23:37;;;;;;;;;;;1.80;99.90;;;;;;5014943;28;20039;-76
2021/01/24 12:26:05;;;;;;;;;;;1.70;99.90;;;;;;5015023;28;19933;-77
2021/01/24 12:28:31;;;;;;;;;;;1.70;99.90;;;;;;5015663;28;19932;-76
2021/01/24 12:30:58;;;;;;;;;;;1.70;99.90;;;;;;5015496;28;19925;-76
2021/01/24 12:33:24;;;;;;;;;;;1.70;99.90;;;;;;5015107;28;20286;-75
2021/01/24 12:35:50;;;;;;;;;;;1.70;99.90;;;;;;5015076;28;20263;-75
2021/01/24 12:38:17;;;;;;;;;;;1.70;99.90;;;;;;5019118;28;20285;-75
2021/01/24 12:40:43;;;;;;;;;;;1.70;99.90;;;;;;5020248;28;20346;-75
2021/01/24 12:43:10;;;;;;;;;;;1.80;99.90;;;;;;5018628;28;19925;-75
2021/01/24 12:45:37;;;;;;;;;;;1.80;99.90;;;;;;5018560;28;19926;-76
2021/01/24 12:48:03;;;;;;;;;;;1.70;99.90;;;;;;5018790;28;19936;-76
2021/01/24 12:50:29;;;;;;;;;;;1.70;99.90;;;;;;5018875;28;20280;-75
2021/01/24 12:52:56;;;;;;;;;;;1.70;99.90;;;;;;5018448;28;20278;-75
2021/01/24 12:55:22;;;;;;;;;;;1.80;99.90;;;;;;5018432;28;20376;-76
2021/01/24 12:57:48;;;;;;;;;;;1.80;99.90;;;;;;5018423;28;20051;-75
2021/01/24 13:00:16;;;;;;;;;;;1.80;99.90;;;;;;5018299;28;19995;-76
2021/01/24 13:02:42;;;;;;;;;;;1.80;99.90;;;;;;5018613;28;19935;-76
2021/01/24 13:05:11;;;;;;;;;;;1.80;99.90;;;;;;5018573;28;19971;-76
2021/01/24 13:07:37;;;;;;;;;;;1.80;99.90;;;;;;5018773;28;20015;-76
2021/01/24 13:10:04;;;;;;;;;;;1.80;99.90;;;;;;5018535;28;19933;-76
2021/01/24 13:12:30;;;;;;;;;;;1.90;99.90;;;;;;5018399;28;19925;-76
2021/01/24 13:14:56;;;;;;;;;;;1.90;99.90;;;;;;5018307;28;19925;-76
2021/01/24 13:17:24;;;;;;;;;;;1.90;99.90;;;;;;5018163;28;19926;-76
2021/01/24 13:19:50;;;;;;;;;;;2.00;99.90;;;;;;5018134;28;19925;-76
2021/01/24 13:22:16;;;;;;;;;;;2.00;99.90;;;;;;5018157;28;19926;-76
2021/01/24 13:24:43;;;;;;;;;;;2.00;99.90;;;;;;5017977;28;19926;-76
2021/01/24 13:27:09;;;;;;;;;;;2.00;99.90;;;;;;5018257;28;19926;-76
2021/01/24 13:29:35;;;;;;;;;;;2.00;99.90;;;;;;5017804;28;19926;-76
2021/01/24 13:32:02;;;;;;;;;;;2.00;99.90;;;;;;5018154;28;19925;-76
2021/01/24 13:34:29;;;;;;;;;;;2.10;99.90;;;;;;5018040;28;19973;-76
2021/01/24 13:37:03;;;;;;;;;;;2.10;99.90;;;;;;5018267;28;20358;-76
2021/01/24 13:39:29;;;;;;;;;;;2.10;99.90;;;;;;5019919;28;19936;-75
2021/01/24 13:41:55;;;;;;;;;;;2.10;99.90;;;;;;5104350;23;19929;-78
2021/01/24 13:44:22;;;;;;;;;;;2.10;99.90;;;;;;5035365;23;19939;-76
2021/01/24 13:46:48;;;;;;;;;;;2.10;99.90;;;;;;5017475;28;19925;-76
2021/01/24 13:49:14;;;;;;;;;;;2.20;99.90;;;;;;5016627;28;19933;-76
2021/01/24 13:51:42;;;;;;;;;;;2.20;99.90;;;;;;5017459;28;19933;-76
2021/01/24 13:54:08;;;;;;;;;;;2.20;99.90;;;;;;5017455;28;20318;-76
2021/01/24 13:56:35;;;;;;;;;;;2.20;99.90;;;;;;5017447;28;20312;-76
2021/01/24 13:59:01;;;;;;;;;;;2.20;99.90;;;;;;5017253;28;20065;-76
2021/01/24 14:01:28;;;;;;;;;;;2.20;99.90;;;;;;5017303;28;20371;-76
2021/01/24 14:03:54;;;;;;;;;;;2.20;99.90;;;;;;5017067;28;19936;-76
2021/01/24 14:06:20;;;;;;;;;;;2.20;99.90;;;;;;5017037;28;20015;-76
2021/01/24 14:08:48;;;;;;;;;;;2.20;99.90;;;;;;5017416;28;20016;-76
2021/01/24 14:11:14;;;;;;;;;;;2.20;99.90;;;;;;5017354;28;19936;-76
2021/01/24 14:13:40;;;;;;;;;;;2.20;99.90;;;;;;5017356;28;20040;-76
2021/01/24 14:16:07;;;;;;;;;;;2.20;99.90;;;;;;5017092;28;19972;-76
2021/01/24 14:18:33;;;;;;;;;;;2.20;99.90;;;;;;5015988;28;20412;-75
2021/01/24 14:21:00;;;;;;;;;;;2.20;99.90;;;;;;5017144;28;19936;-76
2021/01/24 14:23:26;;;;;;;;;;;2.20;99.90;;;;;;5016805;28;19936;-76
2021/01/24 14:25:54;;;;;;;;;;;2.20;99.90;;;;;;5016862;28;19936;-76
2021/01/24 14:28:20;;;;;;;;;;;2.20;99.90;;;;;;5016660;28;20278;-76
2021/01/24 14:30:46;;;;;;;;;;;2.10;99.90;;;;;;5016635;28;19929;-76
2021/01/24 14:33:14;;;;;;;;;;;2.20;99.90;;;;;;5016651;28;19944;-76
2021/01/24 14:35:43;;;;;;;;;;;2.20;99.90;;;;;;5016171;28;20186;-76
2021/01/24 14:38:09;;;;;;;;;;;2.20;99.90;;;;;;5016593;28;19925;-76
2021/01/24 14:40:38;;;;;;;;;;;2.20;99.90;;;;;;5016492;28;19936;-76
2021/01/24 14:43:05;;;;;;;;;;;2.30;99.90;;;;;;5016313;28;19929;-76
2021/01/24 14:45:32;;;;;;;;;;;2.20;99.90;;;;;;5016951;28;19929;-76
2021/01/24 14:47:58;;;;;;;;;;;2.20;99.90;;;;;;5016479;28;19925;-76
2021/01/24 14:50:25;;;;;;;;;;;2.20;99.90;;;;;;5016377;28;19929;-76
2021/01/24 14:52:51;;;;;;;;;;;2.10;99.90;;;;;;5016553;28;19936;-76
2021/01/24 14:55:17;;;;;;;;;;;2.10;99.90;;;;;;5016614;28;19936;-76
2021/01/24 14:57:44;;;;;;;;;;;2.10;99.90;;;;;;5016580;28;19932;-76
2021/01/24 15:00:11;;;;;;;;;;;2.10;99.90;;;;;;5016354;28;19926;-76
2021/01/24 15:02:38;;;;;;;;;;;2.00;99.90;;;;;;5016283;28;19933;-76
2021/01/24 15:05:05;;;;;;;;;;;2.10;99.90;;;;;;5016097;28;20298;-76
2021/01/24 15:07:31;;;;;;;;;;;2.00;99.90;;;;;;5015954;28;19925;-76
2021/01/24 15:09:57;;;;;;;;;;;2.10;99.90;;;;;;5016081;28;19925;-76
2021/01/24 15:12:23;;;;;;;;;;;2.10;99.90;;;;;;5016099;28;19925;-76
2021/01/24 15:14:50;;;;;;;;;;;2.10;99.90;;;;;;5016043;28;19925;-76
2021/01/24 15:17:17;;;;;;;;;;;2.00;99.90;;;;;;5015887;28;19925;-76
2021/01/24 15:19:44;;;;;;;;;;;2.00;99.90;;;;;;5015851;28;19926;-75
2021/01/24 15:22:10;;;;;;;;;;;2.00;99.90;;;;;;5015742;28;19987;-76
2021/01/24 15:24:37;;;;;;;;;;;2.00;99.90;;;;;;5016048;28;19956;-76
2021/01/24 15:27:03;;;;;;;;;;;2.00;99.90;;;;;;5016011;28;19926;-76
2021/01/24 15:29:29;;;;;;;;;;;2.00;99.90;;;;;;5015886;28;19948;-75
2021/01/24 15:31:56;;;;;;;;;;;1.90;99.90;;;;;;5015867;28;20270;-75
2021/01/24 15:34:23;;;;;;;;;;;1.90;99.90;;;;;;5015616;28;20357;-76
2021/01/24 15:36:49;;;;;;;;;;;1.90;99.90;;;;;;5015533;28;19936;-76
2021/01/24 15:39:15;;;;;;;;;;;1.90;99.90;;;;;;5015463;28;19935;-76
2021/01/24 15:41:42;;;;;;;;;;;1.90;99.90;;;;;;5015606;28;19940;-76
2021/01/24 15:44:08;;;;;;;;;;;1.90;99.90;;;;;;5015358;28;19926;-76
2021/01/24 15:46:34;;;;;;;;;;;1.90;99.90;;;;;;5015357;28;20266;-75
2021/01/24 15:49:01;;;;;;;;;;;1.90;99.90;;;;;;5015348;28;20343;-75
2021/01/24 15:51:28;;;;;;;;;;;1.90;99.90;;;;;;5015640;28;19935;-75
2021/01/24 15:53:54;;;;;;;;;;;1.90;99.90;;;;;;5015536;28;19925;-75
2021/01/24 15:56:21;;;;;;;;;;;1.90;99.90;;;;;;5015534;28;19925;-75
2021/01/24 15:58:47;;;;;;;;;;;1.90;99.90;;;;;;5015360;28;19929;-76
2021/01/24 16:01:13;;;;;;;;;;;1.90;99.90;;;;;;5015341;28;20064;-75
2021/01/24 16:03:40;;;;;;;;;;;1.90;99.90;;;;;;5015461;28;19937;-75
2021/01/24 16:06:06;;;;;;;;;;;1.90;99.90;;;;;;5015423;28;19926;-75
2021/01/24 16:08:33;;;;;;;;;;;1.90;99.90;;;;;;5015328;28;19984;-76
2021/01/24 16:11:01;;;;;;;;;;;1.90;99.90;;;;;;5016090;28;19932;-76
2021/01/24 16:13:28;;;;;;;;;;;1.90;99.90;;;;;;5016573;28;19975;-75
2021/01/24 16:15:54;;;;;;;;;;;1.80;99.90;;;;;;5015051;28;19925;-75
2021/01/24 16:18:20;;;;;;;;;;;1.80;99.90;;;;;;5014885;28;19932;-75
2021/01/24 16:20:47;;;;;;;;;;;1.80;99.90;;;;;;5015160;28;19979;-75
2021/01/24 16:23:13;;;;;;;;;;;1.90;99.90;;;;;;4995725;28;19926;-75
2021/01/24 16:25:40;;;;;;;;;;;1.90;99.90;;;;;;4995433;28;19926;-75
2021/01/24 16:28:06;;;;;;;;;;;1.90;99.90;;;;;;4996467;28;19926;-75
2021/01/24 16:30:33;;;;;;;;;;;1.80;99.90;;;;;;4997048;28;19951;-76
2021/01/24 16:32:59;;;;;;;;;;;1.90;99.90;;;;;;4993985;28;19925;-75
2021/01/24 16:35:25;;;;;;;;;;;1.80;99.90;;;;;;4994233;28;19926;-75
2021/01/24 16:37:52;;;;;;;;;;;1.80;99.90;;;;;;4994986;28;19937;-76
2021/01/24 16:40:18;;;;;;;;;;;1.90;99.90;;;;;;4995261;28;19937;-75
2021/01/24 16:42:45;;;;;;;;;;;1.90;99.90;;;;;;4995152;28;19937;-75
2021/01/24 16:45:12;;;;;;;;;;;1.90;99.90;;;;;;4995252;28;19930;-76
2021/01/24 16:47:39;;;;;;;;;;;1.90;99.90;;;;;;4994776;28;19930;-75
2021/01/24 16:50:06;;;;;;;;;;;1.90;99.90;;;;;;4994901;28;20028;-75
2021/01/24 16:52:33;;;;;;;;;;;1.90;99.90;;;;;;4995385;28;19987;-75
2021/01/24 16:54:59;;;;;;;;;;;1.90;99.90;;;;;;4995038;28;20351;-75
2021/01/24 16:57:25;;;;;;;;;;;1.90;99.90;;;;;;4995077;28;19926;-75
2021/01/24 16:59:53;;;;;;;;;;;1.90;99.90;;;;;;4995045;28;19941;-76
2021/01/24 17:02:19;;;;;;;;;;;1.90;99.90;;;;;;4994958;28;19933;-75
2021/01/24 17:04:45;;;;;;;;;;;1.90;99.90;;;;;;4995344;28;19925;-75
2021/01/24 17:07:12;;;;;;;;;;;1.90;99.90;;;;;;4999403;28;19999;-79
2021/01/24 17:09:38;;;;;;;;;;;1.70;99.90;;;;;;4996665;28;19925;-75
2021/01/24 17:12:05;;;;;;;;;;;1.90;99.90;;;;;;4995956;28;20020;-76
2021/01/24 17:14:32;;;;;;;;;;;1.90;99.90;;;;;;4995508;28;20339;-76
2021/01/24 17:16:59;;;;;;;;;;;1.90;99.90;;;;;;4995188;28;19936;-75
2021/01/24 17:19:25;;;;;;;;;;;1.90;99.90;;;;;;4995243;28;19970;-75
2021/01/24 17:21:52;;;;;;;;;;;1.90;99.90;;;;;;4994843;28;19929;-75
2021/01/24 17:24:19;;;;;;;;;;;1.80;99.90;;;;;;4997525;28;19925;-75
2021/01/24 17:26:45;;;;;;;;;;;1.80;99.90;;;;;;4998543;28;19936;-75
2021/01/24 17:29:12;;;;;;;;;;;1.80;99.90;;;;;;4998412;28;19929;-76
2021/01/24 17:31:38;;;;;;;;;;;1.80;99.90;;;;;;4998742;28;19965;-76
2021/01/24 17:34:05;;;;;;;;;;;1.80;99.90;;;;;;4998375;28;19929;-76
2021/01/24 17:36:32;;;;;;;;;;;1.80;99.90;;;;;;4998756;28;19952;-76
2021/01/24 17:38:58;;;;;;;;;;;1.80;99.90;;;;;;4998767;28;20259;-76
2021/01/24 17:41:24;;;;;;;;;;;1.80;99.90;;;;;;4998307;28;20366;-75
2021/01/24 17:43:51;;;;;;;;;;;1.80;99.90;;;;;;4997581;28;20361;-76
2021/01/24 17:46:17;;;;;;;;;;;1.80;99.90;;;;;;4998079;28;19976;-76
2021/01/24 17:48:44;;;;;;;;;;;1.80;99.90;;;;;;4998239;28;19926;-76
2021/01/24 17:51:11;;;;;;;;;;;1.80;99.90;;;;;;4998275;28;19936;-76
2021/01/24 17:53:37;;;;;;;;;;;1.80;99.90;;;;;;4997817;28;19980;-76
2021/01/24 17:56:04;;;;;;;;;;;1.70;99.90;;;;;;4997691;28;19930;-76
2021/01/24 17:58:30;;;;;;;;;;;1.70;99.90;;;;;;4997655;28;20012;-76
2021/01/24 18:00:57;;;;;;;;;;;1.70;99.90;;;;;;4997988;28;19932;-76
2021/01/24 18:03:23;;;;;;;;;;;1.70;99.90;;;;;;4999132;28;19948;-75
2021/01/24 18:05:49;;;;;;;;;;;1.70;99.90;;;;;;4998509;28;19926;-76
2021/01/24 18:08:17;;;;;;;;;;;1.70;99.90;;;;;;4998558;28;19925;-76
2021/01/24 18:10:43;;;;;;;;;;;1.70;99.90;;;;;;4998727;28;19936;-78
2021/01/24 18:13:09;;;;;;;;;;;1.70;99.90;;;;;;4997775;28;19926;-76
2021/01/24 18:15:36;;;;;;;;;;;1.70;99.90;;;;;;4998022;28;19936;-75
2021/01/24 18:18:02;;;;;;;;;;;1.70;99.90;;;;;;4997820;28;19929;-76
2021/01/24 18:20:28;;;;;;;;;;;1.70;99.90;;;;;;4997489;28;19926;-75
2021/01/24 18:22:55;;;;;;;;;;;1.70;99.90;;;;;;4997538;28;19926;-75
2021/01/24 18:25:23;;;;;;;;;;;1.70;99.90;;;;;;4997129;28;19926;-75
2021/01/24 18:27:50;;;;;;;;;;;1.60;99.90;;;;;;4996252;28;20440;-75
2021/01/24 18:30:16;;;;;;;;;;;1.60;99.90;;;;;;4997134;28;19936;-75
2021/01/24 18:32:43;;;;;;;;;;;1.60;99.90;;;;;;4997184;28;19926;-75
2021/01/24 18:35:10;;;;;;;;;;;1.60;99.90;;;;;;4996745;28;19926;-76
2021/01/24 18:37:36;;;;;;;;;;;1.60;99.90;;;;;;4997125;28;19925;-75
2021/01/24 18:40:03;;;;;;;;;;;1.60;99.90;;;;;;4997213;28;19938;-76
2021/01/24 18:42:30;;;;;;;;;;;1.60;99.90;;;;;;4996877;28;19936;-76
2021/01/24 18:44:56;;;;;;;;;;;1.60;99.90;;;;;;4997100;28;19926;-75
2021/01/24 18:47:22;;;;;;;;;;;1.60;99.90;;;;;;4997074;28;19926;-76
2021/01/24 18:49:49;;;;;;;;;;;1.60;99.90;;;;;;4997016;28;19925;-76
2021/01/24 18:52:15;;;;;;;;;;;1.60;99.90;;;;;;4997029;28;20000;-76
2021/01/24 18:54:41;;;;;;;;;;;1.60;99.90;;;;;;4996704;28;19937;-76
2021/01/24 18:57:08;;;;;;;;;;;1.50;99.90;;;;;;4996929;28;19929;-75
2021/01/24 18:59:35;;;;;;;;;;;1.50;99.90;;;;;;4996857;28;19929;-75
2021/01/24 19:02:01;;;;;;;;;;;1.50;99.90;;;;;;4996374;28;19936;-75
2021/01/24 19:04:28;;;;;;;;;;;1.50;99.90;;;;;;4996397;28;19925;-75
2021/01/24 19:06:54;;;;;;;;;;;1.50;99.90;;;;;;4996467;28;19938;-76
2021/01/24 19:09:20;;;;;;;;;;;1.50;99.90;;;;;;4996359;28;19936;-76
2021/01/24 19:11:47;;;;;;;;;;;1.40;99.90;;;;;;4996334;28;19930;-75
2021/01/24 19:14:13;;;;;;;;;;;1.40;99.90;;;;;;4997049;28;19925;-75
2021/01/24 19:16:40;;;;;;;;;;;1.50;99.90;;;;;;4996443;28;19930;-75
2021/01/24 19:19:07;;;;;;;;;;;1.40;99.90;;;;;;4996153;28;20369;-75
2021/01/24 19:21:33;;;;;;;;;;;1.40;99.90;;;;;;4996262;28;19937;-75
2021/01/24 19:24:00;;;;;;;;;;;1.40;99.90;;;;;;4996048;28;19926;-75
2021/01/24 19:26:27;;;;;;;;;;;1.40;99.90;;;;;;4996110;28;20020;-75
2021/01/24 19:28:54;;;;;;;;;;;1.30;99.90;;;;;;4996050;28;19933;-75
2021/01/24 19:31:21;;;;;;;;;;;1.30;99.90;;;;;;4995956;28;19977;-75
2021/01/24 19:33:48;;;;;;;;;;;1.30;99.90;;;;;;4996016;28;20347;-75
2021/01/24 19:36:14;;;;;;;;;;;1.30;99.90;;;;;;4995969;28;20404;-75
2021/01/24 19:38:40;;;;;;;;;;;1.30;99.90;;;;;;4995890;28;19932;-75
2021/01/24 19:41:07;;;;;;;;;;;1.30;99.90;;;;;;4995868;28;19936;-75
2021/01/24 19:43:33;;;;;;;;;;;1.30;99.90;;;;;;4995648;28;19926;-76
2021/01/24 19:45:59;;;;;;;;;;;1.30;99.90;;;;;;4995071;28;19926;-75
2021/01/24 19:48:26;;;;;;;;;;;1.30;99.90;;;;;;4995769;28;19925;-75
2021/01/24 19:50:53;;;;;;;;;;;1.30;99.90;;;;;;4995849;28;19940;-75
2021/01/24 19:53:19;;;;;;;;;;;1.30;99.90;;;;;;4995808;28;19926;-75
2021/01/24 19:55:46;;;;;;;;;;;1.30;99.90;;;;;;4995713;28;19925;-75
2021/01/24 19:58:12;;;;;;;;;;;1.30;99.90;;;;;;4995710;28;19929;-75
2021/01/24 20:00:39;;;;;;;;;;;1.30;99.90;;;;;;4995886;28;19936;-75
2021/01/24 20:03:05;;;;;;;;;;;1.20;99.90;;;;;;4995623;28;19926;-75
2021/01/24 20:05:32;;;;;;;;;;;1.20;99.90;;;;;;4995904;28;19930;-75
2021/01/24 20:07:59;;;;;;;;;;;1.20;99.90;;;;;;4995671;28;20065;-76
2021/01/24 20:10:27;;;;;;;;;;;1.20;99.90;;;;;;4994345;28;20259;-75
2021/01/24 20:12:53;;;;;;;;;;;1.20;99.90;;;;;;5013923;28;20032;-76
2021/01/24 20:15:20;;;;;;;;;;;1.20;99.90;;;;;;5015076;28;19925;-75
2021/01/24 20:17:46;;;;;;;;;;;1.20;99.90;;;;;;5001743;28;19925;-78
2021/01/24 20:20:13;;;;;;;;;;;1.20;99.90;;;;;;4995043;28;20274;-75
2021/01/24 20:22:39;;;;;;;;;;;1.20;99.90;;;;;;4994281;28;19936;-75
2021/01/24 20:25:07;;;;;;;;;;;1.20;99.90;;;;;;5000478;28;20365;-80
2021/01/24 20:27:34;;;;;;;;;;;1.20;99.90;;;;;;5016305;28;19940;-81
2021/01/24 20:32:36;;;;;;;;;;;1.20;99.90;;;;;;5048586;23;19946;-81
2021/01/24 20:35:02;;;;;;;;;;;1.60;99.90;;;;;;4995278;28;19961;-80
2021/01/24 20:37:29;;;;;;;;;;;0.70;99.90;;;;;;4994524;28;20002;-79
2021/01/24 20:39:56;;;;;;;;;;;1.70;99.90;;;;;;4994327;28;19961;-79
2021/01/24 20:42:24;;;;;;;;;;;0.10;99.90;;;;;;5004436;28;19926;-79
2021/01/24 20:44:52;;;;;;;;;;;1.80;99.90;;;;;;4993204;28;19961;-79
2021/01/24 20:47:18;;;;;;;;;;;0.80;99.90;;;;;;4994161;28;19954;-79
2021/01/24 20:49:46;;;;;;;;;;;1.40;99.90;;;;;;4992912;28;20002;-79
2021/01/24 20:52:13;;;;;;;;;;;1.10;99.90;;;;;;4992733;28;19993;-79
2021/01/24 20:54:40;;;;;;;;;;;1.20;99.90;;;;;;4991418;28;19930;-79
2021/01/24 20:57:08;;;;;;;;;;;0.30;99.90;;;;;;4998065;28;19910;-80
2021/01/24 20:59:37;;;;;;;;;;;0.70;99.90;;;;;;5001648;28;19926;-80
2021/01/24 21:02:04;;;;;;;;;;;1.00;99.90;;;;;;5000854;28;19982;-80
2021/01/24 21:04:30;;;;;;;;;;;1.10;99.90;;;;;;5001027;28;19961;-80
2021/01/24 21:06:57;;;;;;;;;;;-0.40;99.90;;;;;;5000855;28;19981;-80
2021/01/24 21:09:24;;;;;;;;;;;-0.20;99.90;;;;;;5001629;28;19981;-80
2021/01/24 21:11:50;;;;;;;;;;;0.60;99.90;;;;;;5000894;28;19918;-80
2021/01/24 21:14:17;;;;;;;;;;;-0.40;99.90;;;;;;5000923;28;19926;-79
2021/01/24 21:16:44;;;;;;;;;;;0.10;99.90;;;;;;5000309;28;19926;-80
2021/01/24 21:19:11;;;;;;;;;;;0.80;99.90;;;;;;4999779;28;19985;-79
2021/01/24 21:21:38;;;;;;;;;;;1.40;99.90;;;;;;4999102;28;19961;-79
2021/01/24 21:24:05;;;;;;;;;;;-1.00;99.90;;;;;;4998821;28;19926;-79
2021/01/24 21:26:31;;;;;;;;;;;-2.40;99.90;;;;;;4999702;28;20390;-80
2021/01/24 21:28:58;;;;;;;;;;;1.00;99.90;;;;;;4999341;28;19927;-80
2021/01/24 21:31:26;;;;;;;;;;;-2.10;99.90;;;;;;5004896;28;19926;-79
2021/01/24 21:33:54;;;;;;;;;;;0.50;99.90;;;;;;4977180;28;19926;-79
2021/01/24 21:36:20;;;;;;;;;;;0.60;99.90;;;;;;4978408;28;19972;-80
2021/01/24 21:38:48;;;;;;;;;;;0.00;99.90;;;;;;4978531;28;19974;-79
2021/01/24 21:41:14;;;;;;;;;;;0.00;99.90;;;;;;4978445;28;19926;-79
2021/01/24 21:43:41;;;;;;;;;;;0.70;99.90;;;;;;4978276;28;19989;-79
2021/01/24 21:46:07;;;;;;;;;;;-1.60;99.90;;;;;;4978425;28;20019;-79
2021/01/24 21:48:34;;;;;;;;;;;0.50;99.90;;;;;;4979134;28;19931;-79
2021/01/24 21:51:01;;;;;;;;;;;0.60;99.90;;;;;;4978088;28;20001;-80
2021/01/24 21:53:28;;;;;;;;;;;-2.20;99.90;;;;;;4995175;28;19926;-80
2021/01/24 21:55:55;;;;;;;;;;;3.60;99.90;;;;;;5011268;28;19926;-79
2021/01/24 21:58:21;;;;;;;;;;;0.00;99.90;;;;;;5016064;28;19925;-80
2021/01/24 22:00:49;;;;;;;;;;;0.30;99.90;;;;;;5015620;28;19926;-80
2021/01/24 22:03:16;;;;;;;;;;;0.30;99.90;;;;;;5015764;28;19922;-79
2021/01/24 22:05:42;;;;;;;;;;;0.30;99.90;;;;;;5016072;28;19926;-80
2021/01/24 22:08:14;;;;;;;;;;;0.20;99.90;;;;;;5015077;28;19996;-79
2021/01/24 22:10:42;;;;;;;;;;;0.20;99.90;;;;;;5003087;28;19926;-79
2021/01/24 22:13:10;;;;;;;;;;;0.20;99.90;;;;;;4997734;28;19926;-81
2021/01/24 22:15:37;;;;;;;;;;;0.20;99.90;;;;;;4997413;28;19926;-80
2021/01/24 22:18:04;;;;;;;;;;;0.20;99.90;;;;;;5016868;28;19926;-80
2021/01/24 22:20:30;;;;;;;;;;;0.10;99.90;;;;;;5005321;28;19927;-81
2021/01/24 22:22:57;;;;;;;;;;;0.10;99.90;;;;;;4999070;28;19912;-81
2021/01/24 22:25:25;;;;;;;;;;;0.10;99.90;;;;;;4999188;28;19985;-81
2021/01/24 22:27:53;;;;;;;;;;;0.10;99.90;;;;;;4999081;28;19952;-80
2021/01/24 22:30:21;;;;;;;;;;;0.10;99.90;;;;;;4998221;28;19937;-80
2021/01/24 22:32:50;;;;;;;;;;;0.10;99.90;;;;;;4999311;28;19914;-80
2021/01/24 22:35:17;;;;;;;;;;;0.00;99.90;;;;;;4998788;28;20239;-80
2021/01/24 22:37:43;;;;;;;;;;;0.00;99.90;;;;;;4998984;28;19910;-80
2021/01/24 22:40:11;;;;;;;;;;;0.00;99.90;;;;;;4999500;28;19926;-80
2021/01/24 22:42:39;;;;;;;;;;;0.00;99.90;;;;;;4998710;28;19926;-80
2021/01/24 22:45:08;;;;;;;;;;;0.00;99.90;;;;;;4998333;28;19986;-80
2021/01/24 22:47:41;;;;;;;;;;;0.00;99.90;;;;;;4999221;28;19926;-80
2021/01/24 22:50:09;;;;;;;;;;;0.00;99.90;;;;;;4999190;28;19910;-80
2021/01/24 22:52:36;;;;;;;;;;;0.00;99.90;;;;;;4997489;28;19969;-80
2021/01/24 22:55:08;;;;;;;;;;;-0.10;99.90;;;;;;4997003;28;19989;-80
2021/01/24 22:57:36;;;;;;;;;;;-0.10;99.90;;;;;;4995766;28;19985;-80
2021/01/24 23:00:05;;;;;;;;;;;0.00;99.90;;;;;;4996867;28;19964;-80
2021/01/24 23:02:35;;;;;;;;;;;0.00;99.90;;;;;;4996621;28;19926;-80
2021/01/24 23:05:02;;;;;;;;;;;-0.10;99.90;;;;;;4996636;28;19981;-80
2021/01/24 23:07:30;;;;;;;;;;;-0.10;99.90;;;;;;4996797;28;19910;-80
2021/01/24 23:09:59;;;;;;;;;;;-0.10;99.90;;;;;;4997993;28;20016;-80
2021/01/24 23:12:25;;;;;;;;;;;-0.20;99.90;;;;;;5011860;28;19922;-80
2021/01/24 23:14:52;;;;;;;;;;;-0.20;99.90;;;;;;4997360;28;19933;-80
2021/01/24 23:17:21;;;;;;;;;;;-0.20;99.90;;;;;;4995681;28;19965;-80
2021/01/24 23:19:47;;;;;;;;;;;-0.20;99.90;;;;;;4998113;28;20013;-80
2021/01/24 23:22:13;;;;;;;;;;;-0.20;99.90;;;;;;4998325;28;19985;-80
2021/01/24 23:24:40;;;;;;;;;;;-0.20;99.90;;;;;;4997835;28;19949;-80